Time;durP1;ratioP1;P1;durP2;ratioP2;P2;SDS_P1;SDS_P2;PMS_P1;PMS_P2;Temp;Humidity;BMP_temperature;BMP_pressure;BME280_temperature;BME280_humidity;BME280_pressure;Samples;Min_cycle;Max_cycle;Signal;HPM_P1;HPM_P2
2023/07/16 00:01:23;;;;;;;21.60;7.90;;;;;;;26.56;52.18;98679.01;135998;1274;22530;-79
2023/07/16 00:04:26;;;;;;;20.50;8.50;;;;;;;26.35;52.89;98678.11;135934;1274;24294;-80
2023/07/16 00:07:28;;;;;;;21.90;8.60;;;;;;;26.26;53.12;98675.95;136027;1274;22510;-80
2023/07/16 00:10:31;;;;;;;21.00;8.20;;;;;;;26.18;53.37;98671.86;136056;1274;22549;-80
2023/07/16 00:13:33;;;;;;;20.30;7.60;;;;;;;26.09;53.73;98666.84;136031;1274;22536;-82
2023/07/16 00:16:36;;;;;;;20.40;8.40;;;;;;;26.02;54.01;98670.96;136012;1256;22530;-81
2023/07/16 00:19:38;;;;;;;20.70;8.10;;;;;;;25.86;54.66;98663.15;136044;1274;22587;-75
2023/07/16 00:22:41;;;;;;;20.70;7.90;;;;;;;25.88;54.88;98669.41;135979;1274;22558;-74
2023/07/16 00:25:43;;;;;;;21.00;8.80;;;;;;;26.25;53.82;98665.98;135947;1274;22593;-73
2023/07/16 00:28:46;;;;;;;22.30;8.40;;;;;;;26.66;52.53;98667.21;136010;1274;22519;-73
2023/07/16 00:31:48;;;;;;;20.70;9.00;;;;;;;26.75;52.13;98669.73;136025;1274;22546;-73
2023/07/16 00:34:51;;;;;;;21.30;9.10;;;;;;;26.56;52.70;98668.02;136004;1272;22575;-73
2023/07/16 00:37:53;;;;;;;20.30;8.40;;;;;;;26.60;52.38;98667.34;136039;1274;24076;-73
2023/07/16 00:40:56;;;;;;;20.60;8.00;;;;;;;26.46;53.01;98660.23;136003;1274;24396;-74
2023/07/16 00:43:58;;;;;;;20.40;7.60;;;;;;;26.49;52.95;98661.13;135921;1274;22544;-73
2023/07/16 00:47:01;;;;;;;20.30;8.80;;;;;;;26.74;52.20;98663.53;135996;1274;22543;-73
2023/07/16 00:50:03;;;;;;;19.40;8.30;;;;;;;26.58;53.08;98660.10;136043;1274;22516;-74
2023/07/16 00:53:06;;;;;;;21.90;9.10;;;;;;;26.34;54.15;98657.54;135979;1274;22554;-73
2023/07/16 00:56:08;;;;;;;21.10;9.20;;;;;;;26.01;55.34;98649.30;136050;1274;25275;-74
2023/07/16 00:59:11;;;;;;;22.10;8.80;;;;;;;26.26;54.68;98653.20;136051;1274;22551;-74
2023/07/16 01:02:13;;;;;;;21.20;8.30;;;;;;;26.54;53.96;98651.73;136033;1274;22547;-75
2023/07/16 01:05:16;;;;;;;20.20;8.10;;;;;;;26.69;53.40;98649.67;136073;1253;22529;-75
2023/07/16 01:08:18;;;;;;;21.80;9.20;;;;;;;26.73;53.46;98649.10;136098;1274;22559;-73
2023/07/16 01:11:21;;;;;;;21.90;9.70;;;;;;;26.57;53.84;98649.37;135969;1274;22550;-73
2023/07/16 01:14:23;;;;;;;21.40;9.50;;;;;;;26.25;55.33;98639.89;136081;1274;22509;-75
2023/07/16 01:17:25;;;;;;;21.00;9.10;;;;;;;26.21;55.22;98635.06;136097;1274;22639;-74
2023/07/16 01:20:28;;;;;;;21.50;9.00;;;;;;;25.99;56.23;98630.27;136057;1265;22517;-75
2023/07/16 01:23:30;;;;;;;22.40;8.90;;;;;;;26.23;55.59;98629.58;136103;1274;22580;-73
2023/07/16 01:26:33;;;;;;;23.80;8.80;;;;;;;26.58;54.28;98645.43;135861;1271;22532;-73
2023/07/16 01:29:36;;;;;;;20.10;8.30;;;;;;;26.31;55.38;98634.33;136009;1274;22541;-74
2023/07/16 01:32:40;;;;;;;21.40;8.60;;;;;;;26.15;56.05;98632.08;136116;1274;22526;-73
2023/07/16 01:35:42;;;;;;;20.30;8.80;;;;;;;26.08;56.39;98629.20;136137;1274;25404;-73
2023/07/16 01:38:45;;;;;;;21.30;8.80;;;;;;;26.08;56.99;98624.14;136141;1274;25585;-73
2023/07/16 01:41:47;;;;;;;23.00;9.40;;;;;;;26.08;57.14;98626.77;136104;1274;22527;-72
2023/07/16 01:44:50;;;;;;;22.40;9.40;;;;;;;26.40;56.01;98628.17;136097;1274;22551;-74
2023/07/16 01:47:52;;;;;;;20.90;8.70;;;;;;;26.47;55.82;98623.89;136148;1274;22554;-72
2023/07/16 01:50:55;;;;;;;20.90;9.00;;;;;;;26.63;55.33;98620.40;136129;1274;22536;-74
2023/07/16 01:53:57;;;;;;;21.00;9.10;;;;;;;26.72;55.11;98624.16;136085;1274;22527;-73
2023/07/16 01:57:00;;;;;;;21.30;9.50;;;;;;;26.71;55.10;98633.39;136062;1274;23186;-73
2023/07/16 02:00:04;;;;;;;25.90;10.30;;;;;;;26.69;55.16;98632.61;136107;1274;22577;-74
2023/07/16 02:03:08;;;;;;;22.60;9.60;;;;;;;26.15;57.17;98628.80;135967;1274;22520;-72
2023/07/16 02:06:13;;;;;;;21.90;9.30;;;;;;;26.20;57.15;98622.98;136139;1274;25303;-72
2023/07/16 02:09:16;;;;;;;21.50;8.90;;;;;;;26.07;57.69;98620.61;136102;1267;22549;-76
2023/07/16 02:12:18;;;;;;;24.60;9.80;;;;;;;26.12;57.67;98618.33;136125;1273;22527;-73
2023/07/16 02:15:21;;;;;;;22.10;9.70;;;;;;;26.14;57.65;98624.63;136158;1274;22528;-80
2023/07/16 02:18:23;;;;;;;24.40;9.40;;;;;;;26.41;57.04;98625.64;136139;1274;22573;-74
2023/07/16 02:21:26;;;;;;;21.80;10.00;;;;;;;26.52;56.26;98620.23;136115;1274;24206;-74
2023/07/16 02:24:28;;;;;;;20.80;9.60;;;;;;;26.41;56.74;98625.32;136180;1274;22531;-73
2023/07/16 02:27:30;;;;;;;21.50;9.20;;;;;;;26.27;57.08;98625.95;136116;1274;22542;-79
2023/07/16 02:30:33;;;;;;;20.90;9.30;;;;;;;26.31;57.18;98623.21;136093;1274;24001;-75
2023/07/16 02:33:36;;;;;;;20.90;9.30;;;;;;;26.17;57.74;98615.54;136112;1274;25631;-83
2023/07/16 02:36:38;;;;;;;25.90;9.90;;;;;;;26.33;57.55;98615.98;136143;1274;22531;-73
2023/07/16 02:39:42;;;;;;;22.90;10.20;;;;;;;26.36;57.39;98618.19;136120;1274;22537;-74
2023/07/16 02:42:44;;;;;;;23.10;10.40;;;;;;;26.35;57.55;98619.13;136091;1274;25362;-73
2023/07/16 02:45:47;;;;;;;25.50;10.20;;;;;;;26.47;57.19;98622.27;136072;1274;25626;-75
2023/07/16 02:48:49;;;;;;;22.20;10.10;;;;;;;26.46;57.04;98627.08;136115;1274;22581;-73
2023/07/16 02:51:51;;;;;;;22.40;9.70;;;;;;;26.23;58.26;98625.23;136110;1274;22532;-73
2023/07/16 02:54:54;;;;;;;20.80;8.70;;;;;;;26.14;58.82;98621.60;136032;1271;22643;-73
2023/07/16 02:57:57;;;;;;;22.10;9.80;;;;;;;26.22;58.58;98621.92;136089;1274;22523;-77
2023/07/16 03:00:59;;;;;;;22.60;9.50;;;;;;;26.11;59.18;98621.65;136035;1273;22540;-73
2023/07/16 03:04:01;;;;;;;23.80;9.80;;;;;;;25.83;60.46;98617.85;136047;1256;22580;-73
2023/07/16 03:07:04;;;;;;;23.20;9.80;;;;;;;26.18;59.35;98614.13;136080;1274;22629;-74
2023/07/16 03:10:06;;;;;;;22.90;10.00;;;;;;;26.12;59.59;98615.05;136071;1274;22584;-74
2023/07/16 03:13:09;;;;;;;21.80;9.60;;;;;;;26.34;58.88;98621.48;136116;1274;22619;-72
2023/07/16 03:16:11;;;;;;;21.60;9.70;;;;;;;26.09;60.04;98625.16;136143;1274;25307;-73
2023/07/16 03:19:14;;;;;;;25.10;10.00;;;;;;;25.98;61.03;98628.48;136091;1274;22520;-74
2023/07/16 03:22:16;;;;;;;22.50;10.60;;;;;;;26.09;60.58;98632.11;136150;1253;23783;-72
2023/07/16 03:25:19;;;;;;;23.40;10.00;;;;;;;26.25;60.08;98635.05;136076;1274;22539;-73
2023/07/16 03:28:21;;;;;;;22.60;9.90;;;;;;;26.20;60.81;98637.48;136076;1274;22523;-73
2023/07/16 03:31:23;;;;;;;21.30;8.90;;;;;;;26.12;61.46;98640.08;135996;1274;22535;-77
2023/07/16 03:34:26;;;;;;;23.40;9.30;;;;;;;26.51;60.22;98643.64;136005;1274;23881;-74
2023/07/16 03:37:28;;;;;;;22.50;10.10;;;;;;;26.47;60.77;98641.60;136116;1269;22555;-75
2023/07/16 03:40:31;;;;;;;23.30;10.00;;;;;;;26.60;60.44;98642.84;136107;1274;24259;-77
2023/07/16 03:43:33;;;;;;;22.50;9.90;;;;;;;27.17;58.33;98636.09;136104;1274;22551;-72
2023/07/16 03:46:36;;;;;;;21.20;9.70;;;;;;;27.30;57.78;98635.61;136044;1274;22542;-75
2023/07/16 03:49:38;;;;;;;21.30;9.00;;;;;;;27.60;56.91;98630.55;136132;1274;22521;-74
2023/07/16 03:52:40;;;;;;;24.50;9.60;;;;;;;27.70;56.67;98628.19;136119;1274;22632;-74
2023/07/16 03:55:43;;;;;;;23.10;9.20;;;;;;;27.59;57.35;98633.70;136129;1274;22650;-78
2023/07/16 03:58:45;;;;;;;22.80;9.50;;;;;;;27.77;57.00;98631.83;136136;1256;22551;-79
2023/07/16 04:01:48;;;;;;;23.20;9.70;;;;;;;27.92;56.77;98632.31;136080;1274;22569;-73
2023/07/16 04:04:50;;;;;;;22.60;9.60;;;;;;;27.96;56.88;98631.23;136025;1274;22540;-72
2023/07/16 04:07:53;;;;;;;22.30;10.20;;;;;;;28.17;56.42;98631.97;136096;1274;24819;-74
2023/07/16 04:10:55;;;;;;;21.20;9.50;;;;;;;28.31;56.12;98632.37;136075;1274;22556;-73
2023/07/16 04:13:58;;;;;;;25.70;9.00;;;;;;;28.60;55.16;98632.55;136082;1254;22912;-74
2023/07/16 04:17:00;;;;;;;22.20;8.70;;;;;;;28.63;55.49;98631.20;135937;1274;22524;-73
2023/07/16 04:20:06;;;;;;;21.50;9.00;;;;;;;28.56;55.94;98631.82;136096;1257;22566;-73
2023/07/16 04:23:08;;;;;;;20.90;9.40;;;;;;;29.04;54.61;98634.34;136063;1256;22948;-73
2023/07/16 04:26:11;;;;;;;21.50;9.80;;;;;;;28.55;56.46;98636.52;136105;1274;22520;-73
2023/07/16 04:29:13;;;;;;;21.70;9.30;;;;;;;29.09;55.19;98634.70;136083;1274;22548;-73
2023/07/16 04:32:15;;;;;;;21.30;9.10;;;;;;;29.42;54.04;98633.92;136069;1274;22540;-75
2023/07/16 04:35:18;;;;;;;21.00;8.90;;;;;;;29.67;53.36;98640.64;136082;1274;22633;-74
2023/07/16 04:38:20;;;;;;;22.00;8.90;;;;;;;29.79;53.38;98644.05;136069;1274;24057;-73
2023/07/16 04:41:23;;;;;;;21.70;9.20;;;;;;;29.98;52.97;98643.42;136062;1274;23110;-75
2023/07/16 04:44:25;;;;;;;21.00;8.60;;;;;;;29.90;53.14;98645.05;136073;1274;22537;-73
2023/07/16 04:47:28;;;;;;;21.00;8.50;;;;;;;29.74;53.89;98650.52;136053;1274;22535;-74
2023/07/16 04:50:30;;;;;;;22.60;9.10;;;;;;;29.89;53.60;98648.48;136061;1254;22556;-74
2023/07/16 04:53:33;;;;;;;21.70;9.20;;;;;;;29.96;53.51;98642.95;136055;1274;22626;-75
2023/07/16 04:56:35;;;;;;;20.10;8.60;;;;;;;30.21;53.12;98643.81;136055;1274;22539;-73
2023/07/16 04:59:38;;;;;;;20.40;8.40;;;;;;;30.44;52.75;98652.92;136051;1256;22524;-74
2023/07/16 05:02:40;;;;;;;20.20;8.50;;;;;;;30.59;52.27;98655.02;136045;1274;25359;-74
2023/07/16 05:05:43;;;;;;;20.10;8.70;;;;;;;30.31;53.42;98659.30;136082;1274;22510;-74
2023/07/16 05:08:45;;;;;;;21.50;8.60;;;;;;;30.60;52.67;98665.51;136039;1274;22510;-74
2023/07/16 05:11:47;;;;;;;20.90;8.70;;;;;;;30.97;51.59;98669.98;136088;1274;22706;-76
2023/07/16 05:14:50;;;;;;;21.90;9.00;;;;;;;31.36;50.44;98670.76;136020;1273;22526;-74
2023/07/16 05:17:53;;;;;;;21.60;8.40;;;;;;;31.60;50.50;98681.84;136121;1251;24369;-73
2023/07/16 05:20:56;;;;;;;18.70;7.90;;;;;;;31.97;49.82;98681.02;136050;1274;22516;-73
2023/07/16 05:23:58;;;;;;;21.20;8.80;;;;;;;32.25;48.61;98676.61;135992;1274;22552;-74
2023/07/16 05:27:01;;;;;;;19.40;8.50;;;;;;;32.52;48.69;98681.23;136113;1274;22513;-73
2023/07/16 05:30:04;;;;;;;21.00;8.20;;;;;;;32.65;47.73;98686.65;136070;1274;22546;-76
2023/07/16 05:33:06;;;;;;;20.50;8.40;;;;;;;32.83;47.45;98687.08;136106;1274;25462;-74
2023/07/16 05:36:09;;;;;;;20.10;8.80;;;;;;;32.92;46.98;98690.23;136110;1274;25401;-75
2023/07/16 05:39:12;;;;;;;19.80;8.30;;;;;;;32.99;47.09;98691.35;136083;1274;22526;-73
2023/07/16 05:42:14;;;;;;;20.40;8.50;;;;;;;33.26;46.51;98693.48;136140;1274;22530;-74
2023/07/16 05:45:17;;;;;;;20.50;8.20;;;;;;;33.14;47.13;98690.86;136121;1274;22523;-77
2023/07/16 05:48:19;;;;;;;20.50;8.20;;;;;;;32.95;47.79;98691.12;136125;1274;22632;-73
2023/07/16 05:51:22;;;;;;;19.00;8.10;;;;;;;32.88;48.40;98689.89;136104;1256;22525;-75
2023/07/16 05:54:24;;;;;;;20.40;8.00;;;;;;;33.17;47.71;98699.48;136098;1274;22524;-76
2023/07/16 05:57:27;;;;;;;21.00;7.60;;;;;;;33.67;46.43;98702.59;136132;1274;22520;-75
2023/07/16 06:00:29;;;;;;;18.40;7.70;;;;;;;33.73;46.47;98702.05;136145;1274;22525;-76
2023/07/16 06:03:31;;;;;;;19.50;7.90;;;;;;;33.78;45.99;98704.59;136136;1274;25500;-73
2023/07/16 06:06:34;;;;;;;20.40;7.60;;;;;;;33.75;46.57;98708.77;136098;1274;22544;-76
2023/07/16 06:09:36;;;;;;;18.50;7.60;;;;;;;33.96;46.41;98709.80;136085;1274;25452;-74
2023/07/16 06:12:39;;;;;;;19.10;7.30;;;;;;;34.16;45.90;98710.90;135960;1274;22588;-73
2023/07/16 06:15:41;;;;;;;19.20;7.70;;;;;;;34.51;45.07;98710.42;135976;1274;22539;-71
2023/07/16 06:18:44;;;;;;;21.20;7.80;;;;;;;34.66;45.32;98714.63;135867;1257;22635;-70
2023/07/16 06:21:46;;;;;;;19.30;7.00;;;;;;;34.97;44.56;98717.89;136158;1274;22528;-75
2023/07/16 06:24:48;;;;;;;16.10;6.90;;;;;;;35.25;44.15;98718.60;136116;1274;22537;-76
2023/07/16 06:27:51;;;;;;;18.90;6.70;;;;;;;35.41;43.80;98722.20;136117;1274;22534;-73
2023/07/16 06:30:53;;;;;;;18.10;7.20;;;;;;;35.58;43.05;98727.77;136155;1274;22542;-73
2023/07/16 06:33:56;;;;;;;19.70;7.10;;;;;;;35.92;42.24;98738.63;136121;1274;22523;-74
2023/07/16 06:36:58;;;;;;;18.50;7.20;;;;;;;36.15;41.09;98746.27;132104;1251;5384439;-73
2023/07/16 06:40:01;;;;;;;19.70;7.40;;;;;;;35.86;39.90;98764.62;136128;1274;22514;-73
2023/07/16 06:43:03;;;;;;;19.30;6.60;;;;;;;35.53;39.97;98777.67;136113;1274;22542;-73
2023/07/16 06:46:06;;;;;;;17.80;6.60;;;;;;;35.19;39.63;98787.23;136079;1274;22533;-74
2023/07/16 06:49:08;;;;;;;17.50;6.70;;;;;;;35.19;39.06;98799.50;136151;1274;25481;-73
2023/07/16 06:52:10;;;;;;;17.80;6.50;;;;;;;34.85;39.76;98802.36;136126;1256;22628;-75
2023/07/16 06:55:13;;;;;;;17.80;6.70;;;;;;;34.71;39.13;98802.98;136101;1274;22539;-74
2023/07/16 06:58:16;;;;;;;18.40;6.60;;;;;;;34.98;39.67;98789.45;136092;1274;22534;-75
2023/07/16 07:01:18;;;;;;;16.50;6.40;;;;;;;35.50;39.97;98780.15;136113;1256;22522;-75
2023/07/16 07:04:20;;;;;;;15.50;6.00;;;;;;;35.94;38.63;98768.94;136127;1274;22520;-75
2023/07/16 07:07:23;;;;;;;17.80;6.70;;;;;;;36.12;37.74;98770.75;136104;1274;25359;-74
2023/07/16 07:10:25;;;;;;;18.00;6.20;;;;;;;36.42;38.15;98775.16;136106;1274;22638;-71
2023/07/16 07:13:29;;;;;;;17.40;6.40;;;;;;;36.82;37.46;98775.17;136064;1273;22533;-75
2023/07/16 07:16:31;;;;;;;16.40;6.50;;;;;;;37.01;36.93;98775.50;136105;1274;22531;-74
2023/07/16 07:19:34;;;;;;;20.00;6.00;;;;;;;37.31;37.41;98765.85;136172;1274;22558;-73
2023/07/16 07:22:37;;;;;;;15.70;6.00;;;;;;;37.64;36.46;98765.69;136098;1253;23128;-75
2023/07/16 07:25:39;;;;;;;16.20;5.80;;;;;;;37.86;34.82;98772.17;136074;1274;22534;-77
2023/07/16 07:28:41;;;;;;;19.10;6.20;;;;;;;37.76;33.83;98772.55;136113;1274;22523;-74
2023/07/16 07:31:44;;;;;;;16.10;5.90;;;;;;;37.18;34.16;98774.19;136091;1274;25396;-74
2023/07/16 07:34:46;;;;;;;16.40;6.20;;;;;;;36.87;35.35;98767.91;136143;1274;22526;-75
2023/07/16 07:37:49;;;;;;;16.40;5.60;;;;;;;37.08;35.45;98767.33;136163;1274;22554;-72
2023/07/16 07:40:51;;;;;;;15.50;5.90;;;;;;;37.11;35.64;98762.75;136134;1274;22528;-73
2023/07/16 07:43:54;;;;;;;17.20;6.50;;;;;;;37.28;34.58;98767.98;136085;1274;22527;-71
2023/07/16 07:46:56;;;;;;;15.00;5.60;;;;;;;37.31;34.72;98759.95;136122;1274;25477;-71
2023/07/16 07:49:58;;;;;;;16.70;6.30;;;;;;;37.37;34.65;98764.79;136116;1274;25595;-73
2023/07/16 07:53:01;;;;;;;15.40;5.60;;;;;;;37.47;34.83;98761.30;136110;1274;22527;-71
2023/07/16 07:56:03;;;;;;;17.00;5.90;;;;;;;37.62;34.29;98765.14;135970;1274;22525;-72
2023/07/16 07:59:06;;;;;;;16.00;5.90;;;;;;;38.09;33.57;98771.70;136074;1274;22536;-73
2023/07/16 08:02:09;;;;;;;18.40;6.50;;;;;;;37.69;34.37;98765.53;136100;1274;22510;-74
2023/07/16 08:05:11;;;;;;;17.80;6.40;;;;;;;37.65;34.13;98765.48;136082;1257;22514;-72
2023/07/16 08:08:14;;;;;;;18.60;6.70;;;;;;;37.32;34.35;98778.17;136135;1274;22520;-72
2023/07/16 08:11:16;;;;;;;20.40;6.80;;;;;;;36.85;34.70;98781.63;136092;1274;25392;-73
2023/07/16 08:14:18;;;;;;;19.40;7.10;;;;;;;36.93;34.52;98784.38;136122;1256;24299;-76
2023/07/16 08:17:21;;;;;;;18.60;6.90;;;;;;;36.60;35.46;98793.66;136092;1256;22522;-74
2023/07/16 08:20:23;;;;;;;17.80;7.30;;;;;;;36.37;35.76;98787.31;136118;1274;22523;-75
2023/07/16 08:23:26;;;;;;;20.20;7.20;;;;;;;36.31;35.51;98784.55;136106;1274;24263;-72
2023/07/16 08:26:28;;;;;;;19.50;7.10;;;;;;;36.08;35.85;98790.48;136065;1274;25359;-72
2023/07/16 08:29:31;;;;;;;18.90;7.60;;;;;;;36.82;36.25;98776.84;136114;1274;24272;-75
2023/07/16 08:32:34;;;;;;;20.10;7.50;;;;;;;37.15;35.61;98768.27;136139;1274;22548;-73
2023/07/16 08:35:36;;;;;;;19.00;7.30;;;;;;;37.35;34.83;98779.44;136116;1259;22533;-73
2023/07/16 08:38:39;;;;;;;20.50;7.80;;;;;;;37.53;34.69;98776.27;136108;1274;22539;-76
2023/07/16 08:41:41;;;;;;;20.60;7.60;;;;;;;37.87;34.64;98772.50;136109;1274;22928;-75
2023/07/16 08:44:43;;;;;;;21.20;7.20;;;;;;;37.87;34.58;98781.48;136066;1274;22532;-73
2023/07/16 08:47:46;;;;;;;19.80;7.60;;;;;;;37.84;34.80;98787.98;136002;1274;22615;-73
2023/07/16 08:50:48;;;;;;;22.40;7.30;;;;;;;37.53;35.04;98797.68;136104;1274;22523;-73
2023/07/16 08:53:51;;;;;;;20.80;6.70;;;;;;;37.49;35.48;98795.42;136057;1274;22529;-74
2023/07/16 08:56:53;;;;;;;19.60;6.80;;;;;;;37.62;34.71;98799.66;136091;1274;22512;-72
2023/07/16 08:59:56;;;;;;;24.30;7.40;;;;;;;37.86;34.74;98801.39;136069;1274;23866;-73
2023/07/16 09:02:58;;;;;;;18.90;7.20;;;;;;;37.81;34.76;98799.25;136063;1274;22527;-73
2023/07/16 09:06:00;;;;;;;19.10;7.50;;;;;;;37.66;35.31;98795.13;136111;1274;22521;-73
2023/07/16 09:09:03;;;;;;;21.10;7.10;;;;;;;37.95;34.45;98789.57;136128;1274;22540;-73
2023/07/16 09:12:05;;;;;;;18.80;7.10;;;;;;;38.36;34.52;98782.73;136103;1274;22520;-74
2023/07/16 09:15:08;;;;;;;19.90;7.10;;;;;;;38.34;33.86;98783.61;136122;1274;22527;-73
2023/07/16 09:18:11;;;;;;;20.30;7.00;;;;;;;38.46;34.41;98787.65;136126;1274;22712;-73
2023/07/16 09:21:14;;;;;;;21.40;6.80;;;;;;;38.83;34.55;98780.84;136108;1273;22523;-73
2023/07/16 09:24:16;;;;;;;17.90;6.20;;;;;;;39.15;33.67;98773.30;136126;1274;22523;-73
2023/07/16 09:27:19;;;;;;;18.70;6.50;;;;;;;39.01;33.55;98767.77;136096;1262;22510;-73
2023/07/16 09:30:21;;;;;;;18.80;6.80;;;;;;;38.93;33.04;98767.54;136113;1274;22566;-74
2023/07/16 09:33:25;;;;;;;20.80;7.00;;;;;;;38.85;34.09;98778.20;136107;1274;22519;-74
2023/07/16 09:36:28;;;;;;;20.00;6.70;;;;;;;39.09;33.32;98778.89;136080;1274;22540;-74
2023/07/16 09:39:30;;;;;;;18.40;6.90;;;;;;;39.45;32.80;98774.17;136122;1274;22533;-74
2023/07/16 09:42:34;;;;;;;18.50;6.60;;;;;;;39.36;32.95;98781.84;136081;1274;22516;-73
2023/07/16 09:45:37;;;;;;;19.00;7.00;;;;;;;38.79;33.54;98782.30;135977;1274;22687;-72
2023/07/16 09:48:39;;;;;;;18.60;6.80;;;;;;;38.81;33.06;98780.25;135953;1261;24228;-72
2023/07/16 09:51:42;;;;;;;17.80;6.40;;;;;;;38.39;33.52;98781.74;136120;1274;22512;-74
2023/07/16 09:54:44;;;;;;;18.20;6.40;;;;;;;38.61;33.13;98777.09;136128;1274;22533;-75
2023/07/16 09:57:46;;;;;;;19.30;6.90;;;;;;;38.41;33.56;98777.85;136114;1274;22545;-74
2023/07/16 10:00:49;;;;;;;17.80;6.90;;;;;;;38.23;33.70;98777.39;136166;1265;22536;-75
2023/07/16 10:03:51;;;;;;;16.30;6.40;;;;;;;37.43;34.89;98778.19;136136;1274;22542;-77
2023/07/16 10:06:54;;;;;;;17.90;6.30;;;;;;;38.07;34.89;98774.17;136113;1256;24248;-74
2023/07/16 10:09:56;;;;;;;16.40;6.60;;;;;;;38.34;34.25;98781.86;136127;1274;22520;-74
2023/07/16 10:12:59;;;;;;;16.80;6.60;;;;;;;38.33;33.88;98780.65;136095;1274;22531;-74
2023/07/16 10:16:01;;;;;;;17.20;6.40;;;;;;;38.30;33.63;98779.45;136127;1257;22513;-75
2023/07/16 10:19:04;;;;;;;16.70;6.20;;;;;;;38.15;34.52;98775.16;136106;1274;24490;-73
2023/07/16 10:22:07;;;;;;;15.80;6.20;;;;;;;38.74;33.06;98774.41;136128;1274;22531;-74
2023/07/16 10:25:10;;;;;;;16.70;6.20;;;;;;;39.11;33.47;98768.34;136090;1256;25474;-76
2023/07/16 10:28:12;;;;;;;16.60;6.60;;;;;;;39.58;32.71;98768.70;136146;1274;22521;-73
2023/07/16 10:31:14;;;;;;;13.70;5.60;;;;;;;40.12;32.91;98770.17;135983;1258;22539;-72
2023/07/16 10:34:17;;;;;;;16.40;6.00;;;;;;;40.18;31.93;98775.13;136143;1274;22546;-74
2023/07/16 10:37:19;;;;;;;16.00;5.80;;;;;;;40.06;31.45;98780.13;136050;1274;22538;-73
2023/07/16 10:40:22;;;;;;;18.70;6.10;;;;;;;39.96;31.36;98778.23;136062;1274;22527;-71
2023/07/16 10:43:24;;;;;;;16.00;5.90;;;;;;;39.99;31.47;98779.03;136131;1274;22649;-72
2023/07/16 10:46:27;;;;;;;16.20;5.50;;;;;;;40.43;30.83;98779.34;136078;1274;22496;-72
2023/07/16 10:49:29;;;;;;;18.60;6.00;;;;;;;40.35;30.17;98779.00;136085;1274;22628;-74
2023/07/16 10:52:32;;;;;;;16.60;6.20;;;;;;;40.62;30.27;98778.65;136114;1274;22526;-74
2023/07/16 10:55:37;;;;;;;14.60;5.80;;;;;;;39.68;30.57;98788.98;135959;1274;22549;-72
2023/07/16 10:58:40;;;;;;;15.50;5.70;;;;;;;39.09;31.52;98783.75;136064;1274;22546;-73
2023/07/16 11:01:44;;;;;;;15.10;5.30;;;;;;;39.12;31.95;98781.92;136051;1274;24367;-73
2023/07/16 11:04:46;;;;;;;16.90;5.90;;;;;;;39.13;32.29;98783.85;136071;1274;22527;-74
2023/07/16 11:07:49;;;;;;;16.00;5.90;;;;;;;38.98;31.95;98782.70;136074;1274;22520;-74
2023/07/16 11:10:51;;;;;;;17.10;5.50;;;;;;;39.55;32.18;98788.77;136119;1274;22539;-76
2023/07/16 11:13:54;;;;;;;12.90;5.30;;;;;;;39.73;32.19;98790.66;136093;1274;22542;-75
2023/07/16 11:16:57;;;;;;;15.50;5.60;;;;;;;40.36;30.68;98782.26;136111;1274;22528;-74
2023/07/16 11:20:00;;;;;;;14.10;5.10;;;;;;;40.62;30.11;98786.92;136125;1274;22600;-74
2023/07/16 11:23:03;;;;;;;14.00;4.50;;;;;;;40.29;29.71;98799.95;136131;1274;25360;-73
2023/07/16 11:26:05;;;;;;;14.30;4.50;;;;;;;40.15;29.01;98797.07;136139;1256;22523;-75
2023/07/16 11:29:08;;;;;;;12.10;4.40;;;;;;;39.97;29.01;98799.30;136115;1274;22531;-73
2023/07/16 11:32:10;;;;;;;13.10;4.50;;;;;;;39.23;30.05;98797.48;136120;1273;22524;-75
2023/07/16 11:35:13;;;;;;;15.60;4.90;;;;;;;39.30;29.86;98795.31;136117;1273;22516;-76
2023/07/16 11:38:15;;;;;;;12.90;4.70;;;;;;;39.68;30.11;98800.04;136077;1274;22547;-74
2023/07/16 11:41:17;;;;;;;15.90;4.90;;;;;;;39.73;28.97;98799.05;136131;1274;22540;-73
2023/07/16 11:44:20;;;;;;;14.90;4.90;;;;;;;39.76;29.39;98799.95;135991;1274;22533;-72
2023/07/16 11:47:22;;;;;;;15.60;4.50;;;;;;;40.16;28.09;98793.16;136118;1274;22540;-75
2023/07/16 11:50:25;;;;;;;15.60;4.80;;;;;;;40.59;28.76;98793.11;136103;1256;22527;-75
2023/07/16 11:53:27;;;;;;;11.60;4.50;;;;;;;40.40;28.90;98792.52;136082;1274;22490;-74
2023/07/16 11:56:30;;;;;;;17.80;4.50;;;;;;;40.41;28.55;98799.29;136101;1257;22676;-73
2023/07/16 11:59:32;;;;;;;13.30;4.20;;;;;;;40.71;28.39;98795.16;136147;1274;22530;-76
2023/07/16 12:02:35;;;;;;;8.90;3.90;;;;;;;41.07;27.95;98793.36;136116;1274;22552;-74
2023/07/16 12:05:37;;;;;;;12.90;4.50;;;;;;;40.31;27.33;98790.70;136136;1274;22568;-74
2023/07/16 12:08:40;;;;;;;11.30;4.30;;;;;;;40.54;28.12;98785.12;135895;1272;24202;-73
2023/07/16 12:11:42;;;;;;;9.70;4.00;;;;;;;40.55;27.71;98785.18;136018;1274;22520;-73
2023/07/16 12:14:45;;;;;;;10.70;4.10;;;;;;;40.47;27.67;98781.13;136085;1274;22530;-71
2023/07/16 12:17:47;;;;;;;12.40;4.10;;;;;;;40.37;28.11;98775.30;136105;1274;22622;-72
2023/07/16 12:20:50;;;;;;;9.70;3.80;;;;;;;40.52;27.37;98777.59;136078;1274;25329;-73
2023/07/16 12:23:52;;;;;;;11.20;3.70;;;;;;;40.76;27.17;98775.38;136110;1274;24257;-73
2023/07/16 12:26:55;;;;;;;12.20;4.00;;;;;;;40.92;26.96;98771.39;136128;1274;23870;-74
2023/07/16 12:29:57;;;;;;;11.50;4.10;;;;;;;40.96;27.13;98767.05;136036;1274;22514;-73
2023/07/16 12:32:59;;;;;;;10.20;3.90;;;;;;;41.72;27.08;98764.62;135908;1274;24230;-72
2023/07/16 12:36:02;;;;;;;10.10;3.80;;;;;;;41.87;26.24;98756.84;136110;1274;22530;-71
2023/07/16 12:39:05;;;;;;;10.70;3.50;;;;;;;41.98;25.81;98752.79;136096;1274;22533;-73
2023/07/16 12:42:08;;;;;;;9.60;3.90;;;;;;;42.27;25.59;98755.90;136095;1258;22544;-73
2023/07/16 12:45:10;;;;;;;9.10;3.70;;;;;;;42.54;25.91;98750.98;136100;1275;22534;-73
2023/07/16 12:48:13;;;;;;;13.00;3.70;;;;;;;42.40;25.58;98758.78;136119;1274;22616;-72
2023/07/16 12:51:15;;;;;;;13.20;4.10;;;;;;;42.01;25.41;98755.31;136097;1274;22626;-72
2023/07/16 12:54:17;;;;;;;14.90;4.30;;;;;;;42.01;25.10;98755.14;135881;1274;22521;-72
2023/07/16 12:57:20;;;;;;;11.20;4.00;;;;;;;41.90;25.89;98749.41;136099;1274;22668;-72
2023/07/16 13:00:22;;;;;;;11.00;3.90;;;;;;;41.95;25.64;98748.98;136135;1274;22535;-72
2023/07/16 13:03:25;;;;;;;11.80;4.20;;;;;;;42.45;25.22;98741.09;136102;1274;22536;-72
2023/07/16 13:06:27;;;;;;;10.70;3.80;;;;;;;42.71;25.14;98736.95;136153;1274;22512;-72
2023/07/16 13:09:30;;;;;;;12.80;4.10;;;;;;;42.62;25.42;98741.70;135939;1274;22539;-71
2023/07/16 13:12:32;;;;;;;8.40;3.50;;;;;;;42.83;23.91;98739.63;136115;1274;22528;-71
2023/07/16 13:15:35;;;;;;;10.30;3.80;;;;;;;42.74;23.98;98737.13;136126;1274;25224;-71
2023/07/16 13:18:37;;;;;;;13.00;4.00;;;;;;;42.75;24.23;98733.89;136151;1274;24514;-71
2023/07/16 13:21:40;;;;;;;12.30;3.70;;;;;;;42.82;25.17;98742.14;136150;1274;24299;-71
2023/07/16 13:24:42;;;;;;;10.60;3.90;;;;;;;43.22;25.19;98742.73;136126;1274;22534;-71
2023/07/16 13:27:45;;;;;;;12.80;4.70;;;;;;;43.67;24.06;98745.04;136162;1274;22531;-71
2023/07/16 13:30:47;;;;;;;14.80;4.10;;;;;;;43.78;24.75;98745.73;136138;1275;22528;-71
2023/07/16 13:33:49;;;;;;;9.70;3.80;;;;;;;43.94;24.64;98741.95;136147;1274;22530;-71
2023/07/16 13:36:52;;;;;;;11.10;3.90;;;;;;;43.73;23.89;98749.41;136150;1274;22541;-71
2023/07/16 13:39:54;;;;;;;10.50;3.80;;;;;;;43.26;23.19;98750.41;136117;1275;22632;-71
2023/07/16 13:42:57;;;;;;;11.30;4.00;;;;;;;42.89;24.26;98746.61;136034;1274;23245;-71
2023/07/16 13:45:59;;;;;;;17.40;4.50;;;;;;;43.20;24.41;98740.58;136052;1274;22527;-71
2023/07/16 13:49:02;;;;;;;14.50;4.10;;;;;;;43.77;23.93;98746.71;136114;1274;22637;-71
2023/07/16 13:52:04;;;;;;;9.90;3.70;;;;;;;43.84;24.51;98744.21;136039;1274;25369;-71
2023/07/16 13:55:07;;;;;;;12.70;4.00;;;;;;;44.09;24.59;98743.45;136078;1274;25472;-71
2023/07/16 13:58:10;;;;;;;11.00;4.10;;;;;;;44.27;24.05;98742.25;136134;1274;22530;-71